Terminal Aerodrome Forecast
Issued by NWS Amarillo, TX

Current Version | Previous Version | Text Only | Print | Product List | Glossary On
Versions: 1 2 3 4 5 6 7 8 9 10 11 12 13 14
000
FTUS44 KAMA 251720
TAFAMA
TAF
KAMA 251720Z 2518/2618 26018G27KT P6SM FEW200
     FM260200 24014KT P6SM FEW200
     FM261300 30012KT P6SM SCT150=

USA.gov is the U.S. government's official web portal to all federal, state and local government web resources and services.